Share

Ord, NE (68862)

Sharp (KODX) Elev 2070 ft | 41.62 °N, 98.95 °W | Change Station

Current weather conditions updated 7 minutes ago

Partly Cloudy
Partly Cloudy
55 °F
Feels Like 55 °F
N
0
Wind Variable Wind from North
Sunrise 6:46 AM
Sunset 8:22 PM
Moon Waning Gibbous

Today is forecast to be Much Cooler than yesterday.

Pressure 29.95 in
Visibility 10.0 miles
Clouds Few 12000 ft
Dew Point 52 °F
Humidity 89%
Rainfall 0.04 in
Snow Depth Not available.
UV 0 out of 16
Pollen 7.80 out of 12
Air Quality Not available.
Flu Activity Sporadic
METAR KODX 210753Z AUTO 00000KT 10SM FEW120 13/11 A2996 RMK AO2 SLP140 T01280111 $

More Conditions Fewer Conditions

Pressure 29.95 in
Visibility 10.0 miles
Clouds Few 12000 ft
Dew Point 52 °F
Humidity 89%
Rainfall 0.04 in
Snow Depth Not available.
UV 0 out of 16
Pollen 7.80 out of 12
Air Quality Not available.
Flu Activity Sporadic
METAR KODX 210753Z AUTO 00000KT 10SM FEW120 13/11 A2996 RMK AO2 SLP140 T01280111 $

More Conditions Fewer Conditions

Nowcast | as of 2:00 am CDT on April 21, 2014

A fairly robust area of showers and thunderstorms will drift southeast across the Interstate 80 corridor between 2 and 3 am this morning. Look for some brief pockets of heavy rain moving through Grand Island by 3 am...and possibly into York... Hastings...Kearney and Holdrege by 4 am. Rain amounts of one quarter inch or so will be common with heavier showers.

×

10-Day Weather Forecast

Almanac

Astronomy

Apr. 21, 2014 Rise Set
Actual Time 6:46 AM CDT 8:22 PM CDT
Civil Twilight 6:17 AM CDT 8:52 PM CDT
Nautical Twilight 5:41 AM CDT 9:27 PM CDT
Astronomical Twilight 5:04 AM CDT 10:05 PM CDT
Moon 1:55 AM CDT 12:14 PM CDT
Length of Visible Light 14h 35m
Length of Day
13h 36m
Tomorrow will be 2m 34s longer.
Waning Gibbous, 61% of the Moon is Illuminated
Today
Waning Gibbous
Apr 22
Last Quarter
Apr 29
New
May 6
First Quarter
May 14
Full

Today's Extremes

State Highs State Lows

Community

  • Snowy Robin
    Snowy Robin
  • Sun Pillar and Geese
    Sun Pillar and Geese
  • Showers on the Way
    Showers on the Way
  • Easter Morning Fog
    Easter Morning Fog
  • Easter Dance
    Easter Dance

WunderPhotos

Upload Photos

1,703,572 photos uploaded!

WunderBlogs® & News

Nearby

Snow Depth

Station Depth Elevation
No new snow has been reported.

Coastal Water Temperatures

Place Temperature
No Stations Reporting

Earthquake Activity

City Distance Mag. Time & Date
No recent earthquake activity has been reported nearby.
Minimum magnitude displayed is 2.5.

Nearby Weather Stations

Station Location Temp. Dew Point Humidity Wind Precip. Elev Updated Type
Central, Loup City, NE 56.5 °F 54 °F 92% ESE  at  2.7 mph - / hr 2090 ft 2:48 AM CDT Normal
Sargent, Sargent, NE 55.0 °F 51 °F 87% NW  at  2.0 mph 0.00 in / hr 2314 ft 2:46 AM CDT Normal

Show More Stations Show Fewer Stations

What do you think?

We're not finished. Please let us know what you like, what you don't like, and what you are still missing.